sensor_id;sensor_type;location;lat;lon;timestamp;noise_LAeq;noise_LA_min;noise_LA_max;noise_LA01;noise_LA95
60031;Laerm;45901;47.600;9.890;2024-01-16T00:00:05;39.98;37.12;41.89;;
60031;Laerm;45901;47.600;9.890;2024-01-16T00:02:32;40.18;37.70;46.76;;
60031;Laerm;45901;47.600;9.890;2024-01-16T00:05:01;39.89;36.69;41.68;;
60031;Laerm;45901;47.600;9.890;2024-01-16T00:07:28;39.78;37.52;41.46;;
60031;Laerm;45901;47.600;9.890;2024-01-16T00:09:55;39.93;37.32;42.22;;
60031;Laerm;45901;47.600;9.890;2024-01-16T00:12:23;39.71;37.32;41.75;;
60031;Laerm;45901;47.600;9.890;2024-01-16T00:14:50;39.70;37.32;41.75;;
60031;Laerm;45901;47.600;9.890;2024-01-16T00:17:17;39.71;37.32;44.94;;
60031;Laerm;45901;47.600;9.890;2024-01-16T00:19:44;39.70;37.12;42.47;;
60031;Laerm;45901;47.600;9.890;2024-01-16T00:22:13;39.70;37.12;41.96;;
60031;Laerm;45901;47.600;9.890;2024-01-16T00:24:40;39.63;37.12;41.46;;
60031;Laerm;45901;47.600;9.890;2024-01-16T00:27:08;39.62;37.12;41.30;;
60031;Laerm;45901;47.600;9.890;2024-01-16T00:29:35;39.60;37.12;41.68;;
60031;Laerm;45901;47.600;9.890;2024-01-16T00:32:02;39.72;36.69;45.66;;
60031;Laerm;45901;47.600;9.890;2024-01-16T00:34:29;39.55;36.45;41.61;;
60031;Laerm;45901;47.600;9.890;2024-01-16T00:36:57;39.51;36.20;41.61;;
60031;Laerm;45901;47.600;9.890;2024-01-16T00:39:25;39.49;36.69;41.38;;
60031;Laerm;45901;47.600;9.890;2024-01-16T00:41:52;39.46;36.91;41.38;;
60031;Laerm;45901;47.600;9.890;2024-01-16T00:44:19;39.52;36.45;41.53;;
60031;Laerm;45901;47.600;9.890;2024-01-16T00:46:47;39.68;36.69;45.01;;
60031;Laerm;45901;47.600;9.890;2024-01-16T00:49:14;39.52;36.69;41.68;;
60031;Laerm;45901;47.600;9.890;2024-01-16T00:51:41;39.52;36.91;41.46;;
60031;Laerm;45901;47.600;9.890;2024-01-16T00:54:08;39.48;36.45;41.38;;
60031;Laerm;45901;47.600;9.890;2024-01-16T00:56:36;39.48;36.45;41.82;;
60031;Laerm;45901;47.600;9.890;2024-01-16T00:59:04;39.47;36.69;41.53;;
60031;Laerm;45901;47.600;9.890;2024-01-16T01:01:31;39.85;36.69;47.65;;
60031;Laerm;45901;47.600;9.890;2024-01-16T01:03:58;39.51;36.45;41.46;;
60031;Laerm;45901;47.600;9.890;2024-01-16T01:06:25;39.50;36.91;41.75;;
60031;Laerm;45901;47.600;9.890;2024-01-16T01:08:52;39.52;36.20;41.46;;
60031;Laerm;45901;47.600;9.890;2024-01-16T01:11:19;39.49;36.69;42.09;;
60031;Laerm;45901;47.600;9.890;2024-01-16T01:13:48;39.44;36.69;41.46;;
60031;Laerm;45901;47.600;9.890;2024-01-16T01:16:16;39.53;36.45;45.27;;
60031;Laerm;45901;47.600;9.890;2024-01-16T01:18:43;39.37;36.56;41.46;;
60031;Laerm;45901;47.600;9.890;2024-01-16T01:21:10;39.34;36.45;41.41;;
60031;Laerm;45901;47.600;9.890;2024-01-16T01:23:37;39.38;36.69;41.46;;
60031;Laerm;45901;47.600;9.890;2024-01-16T01:26:04;39.39;36.45;41.38;;
60031;Laerm;45901;47.600;9.890;2024-01-16T01:28:31;39.51;36.91;42.82;;
60031;Laerm;45901;47.600;9.890;2024-01-16T01:31:00;39.50;36.45;46.15;;
60031;Laerm;45901;47.600;9.890;2024-01-16T01:33:27;39.35;36.20;41.38;;
60031;Laerm;45901;47.600;9.890;2024-01-16T01:35:54;39.30;35.94;41.53;;
60031;Laerm;45901;47.600;9.890;2024-01-16T01:38:21;39.37;36.69;41.75;;
60031;Laerm;45901;47.600;9.890;2024-01-16T01:40:49;39.32;36.20;41.46;;
60031;Laerm;45901;47.600;9.890;2024-01-16T01:43:17;39.31;35.66;41.53;;
60031;Laerm;45901;47.600;9.890;2024-01-16T01:45:50;39.40;35.31;45.94;;
60031;Laerm;45901;47.600;9.890;2024-01-16T01:48:25;39.22;35.04;41.46;;
60031;Laerm;45901;47.600;9.890;2024-01-16T01:50:52;39.27;35.94;41.30;;
60031;Laerm;45901;47.600;9.890;2024-01-16T01:53:19;39.20;36.20;41.30;;
60031;Laerm;45901;47.600;9.890;2024-01-16T01:55:49;39.24;36.69;41.38;;
60031;Laerm;45901;47.600;9.890;2024-01-16T01:58:17;39.21;36.45;41.33;;
60031;Laerm;45901;47.600;9.890;2024-01-16T02:00:45;39.29;35.66;44.73;;
60031;Laerm;45901;47.600;9.890;2024-01-16T02:03:12;39.51;36.45;47.16;;
60031;Laerm;45901;47.600;9.890;2024-01-16T02:05:43;39.14;36.20;41.30;;
60031;Laerm;45901;47.600;9.890;2024-01-16T02:08:10;39.15;35.94;41.46;;
60031;Laerm;45901;47.600;9.890;2024-01-16T02:10:38;39.17;35.94;41.30;;
60031;Laerm;45901;47.600;9.890;2024-01-16T02:13:06;39.19;35.94;41.06;;
60031;Laerm;45901;47.600;9.890;2024-01-16T02:15:33;39.18;36.20;41.14;;
60031;Laerm;45901;47.600;9.890;2024-01-16T02:18:00;39.28;35.94;46.15;;
60031;Laerm;45901;47.600;9.890;2024-01-16T02:20:28;39.17;35.66;41.53;;
60031;Laerm;45901;47.600;9.890;2024-01-16T02:22:59;39.22;36.45;41.82;;
60031;Laerm;45901;47.600;9.890;2024-01-16T02:25:29;39.11;35.66;41.38;;
60031;Laerm;45901;47.600;9.890;2024-01-16T02:27:56;39.11;35.94;41.22;;
60031;Laerm;45901;47.600;9.890;2024-01-16T02:30:23;39.10;36.34;41.38;;
60031;Laerm;45901;47.600;9.890;2024-01-16T02:32:51;39.25;36.20;45.20;;
60031;Laerm;45901;47.600;9.890;2024-01-16T02:35:18;39.13;36.20;41.22;;
60031;Laerm;45901;47.600;9.890;2024-01-16T02:37:45;39.16;36.45;41.53;;
60031;Laerm;45901;47.600;9.890;2024-01-16T02:40:12;39.20;36.20;42.65;;
60031;Laerm;45901;47.600;9.890;2024-01-16T02:42:40;39.18;36.20;41.38;;
60031;Laerm;45901;47.600;9.890;2024-01-16T02:45:08;39.20;35.36;41.22;;
60031;Laerm;45901;47.600;9.890;2024-01-16T02:47:36;39.38;36.45;46.43;;
60031;Laerm;45901;47.600;9.890;2024-01-16T02:50:04;39.46;36.45;45.17;;
60031;Laerm;45901;47.600;9.890;2024-01-16T02:52:31;39.30;35.94;41.46;;
60031;Laerm;45901;47.600;9.890;2024-01-16T02:54:58;39.44;36.56;42.41;;
60031;Laerm;45901;47.600;9.890;2024-01-16T02:57:25;40.24;36.98;43.44;;
60031;Laerm;45901;47.600;9.890;2024-01-16T02:59:54;39.63;36.69;44.54;;
60031;Laerm;45901;47.600;9.890;2024-01-16T03:02:22;39.99;36.20;48.96;;
60031;Laerm;45901;47.600;9.890;2024-01-16T03:04:49;39.36;36.45;41.94;;
60031;Laerm;45901;47.600;9.890;2024-01-16T03:07:17;39.42;36.45;41.53;;
60031;Laerm;45901;47.600;9.890;2024-01-16T03:09:44;39.42;36.45;41.30;;
60031;Laerm;45901;47.600;9.890;2024-01-16T03:12:12;39.50;36.91;44.11;;
60031;Laerm;45901;47.600;9.890;2024-01-16T03:14:39;40.50;36.69;49.34;;
60031;Laerm;45901;47.600;9.890;2024-01-16T03:17:07;39.47;36.20;45.48;;
60031;Laerm;45901;47.600;9.890;2024-01-16T03:19:34;39.55;36.69;42.35;;
60031;Laerm;45901;47.600;9.890;2024-01-16T03:22:02;39.45;36.69;41.53;;
60031;Laerm;45901;47.600;9.890;2024-01-16T03:24:30;39.54;36.77;41.61;;
60031;Laerm;45901;47.600;9.890;2024-01-16T03:26:57;39.45;36.91;41.38;;
60031;Laerm;45901;47.600;9.890;2024-01-16T03:29:24;39.47;36.91;41.38;;
60031;Laerm;45901;47.600;9.890;2024-01-16T03:31:51;39.61;36.69;46.18;;
60031;Laerm;45901;47.600;9.890;2024-01-16T03:34:20;39.52;36.69;41.53;;
60031;Laerm;45901;47.600;9.890;2024-01-16T03:36:47;39.54;36.98;41.82;;
60031;Laerm;45901;47.600;9.890;2024-01-16T03:39:14;39.66;36.91;43.19;;
60031;Laerm;45901;47.600;9.890;2024-01-16T03:41:41;39.58;37.12;41.68;;
60031;Laerm;45901;47.600;9.890;2024-01-16T03:44:08;39.60;36.69;41.46;;
60031;Laerm;45901;47.600;9.890;2024-01-16T03:46:36;39.81;37.12;45.96;;
60031;Laerm;45901;47.600;9.890;2024-01-16T03:49:03;39.60;37.12;41.53;;
60031;Laerm;45901;47.600;9.890;2024-01-16T03:51:31;39.61;36.45;41.46;;
60031;Laerm;45901;47.600;9.890;2024-01-16T03:53:59;39.67;36.91;41.53;;
60031;Laerm;45901;47.600;9.890;2024-01-16T03:56:26;39.67;37.12;41.53;;
60031;Laerm;45901;47.600;9.890;2024-01-16T03:58:53;39.62;36.91;41.46;;
60031;Laerm;45901;47.600;9.890;2024-01-16T04:01:30;40.28;37.12;48.05;;
60031;Laerm;45901;47.600;9.890;2024-01-16T04:04:00;39.64;36.91;41.61;;
60031;Laerm;45901;47.600;9.890;2024-01-16T04:06:31;40.25;37.52;43.54;;
60031;Laerm;45901;47.600;9.890;2024-01-16T04:08:58;40.71;37.88;43.94;;
60031;Laerm;45901;47.600;9.890;2024-01-16T04:11:26;39.96;37.52;44.07;;
60031;Laerm;45901;47.600;9.890;2024-01-16T04:13:53;39.70;36.69;42.22;;
60031;Laerm;45901;47.600;9.890;2024-01-16T04:16:21;39.66;36.91;44.94;;
60031;Laerm;45901;47.600;9.890;2024-01-16T04:18:48;39.66;36.91;41.89;;
60031;Laerm;45901;47.600;9.890;2024-01-16T04:21:15;39.65;36.91;41.82;;
60031;Laerm;45901;47.600;9.890;2024-01-16T04:23:44;39.74;36.91;43.09;;
60031;Laerm;45901;47.600;9.890;2024-01-16T04:26:11;39.60;36.69;41.53;;
60031;Laerm;45901;47.600;9.890;2024-01-16T04:28:38;39.82;37.32;43.04;;
60031;Laerm;45901;47.600;9.890;2024-01-16T04:31:05;39.76;37.12;45.39;;
60031;Laerm;45901;47.600;9.890;2024-01-16T04:33:33;40.12;37.12;47.40;;
60031;Laerm;45901;47.600;9.890;2024-01-16T04:36:00;39.79;37.12;41.88;;
60031;Laerm;45901;47.600;9.890;2024-01-16T04:38:27;40.06;37.12;45.33;;
60031;Laerm;45901;47.600;9.890;2024-01-16T04:40:55;39.88;36.91;44.62;;
60031;Laerm;45901;47.600;9.890;2024-01-16T04:43:23;39.81;37.52;45.45;;
60031;Laerm;45901;47.600;9.890;2024-01-16T04:45:50;40.04;37.32;46.25;;
60031;Laerm;45901;47.600;9.890;2024-01-16T04:48:17;39.72;36.56;46.07;;
60031;Laerm;45901;47.600;9.890;2024-01-16T04:50:44;39.81;37.32;41.82;;
60031;Laerm;45901;47.600;9.890;2024-01-16T04:53:12;40.02;37.32;44.54;;
60031;Laerm;45901;47.600;9.890;2024-01-16T04:55:39;39.82;37.32;41.81;;
60031;Laerm;45901;47.600;9.890;2024-01-16T04:58:08;39.84;37.32;42.09;;
60031;Laerm;45901;47.600;9.890;2024-01-16T05:00:36;40.15;37.12;45.91;;
60031;Laerm;45901;47.600;9.890;2024-01-16T05:03:04;40.52;37.32;46.98;;
60031;Laerm;45901;47.600;9.890;2024-01-16T05:05:31;40.16;37.17;43.58;;
60031;Laerm;45901;47.600;9.890;2024-01-16T05:08:01;39.86;36.91;42.09;;
60031;Laerm;45901;47.600;9.890;2024-01-16T05:10:29;40.18;37.52;44.23;;
60031;Laerm;45901;47.600;9.890;2024-01-16T05:12:56;39.94;37.70;42.29;;
60031;Laerm;45901;47.600;9.890;2024-01-16T05:15:25;39.84;37.52;41.75;;
60031;Laerm;45901;47.600;9.890;2024-01-16T05:17:52;40.07;37.32;46.52;;
60031;Laerm;45901;47.600;9.890;2024-01-16T05:20:20;39.77;36.69;41.89;;
60031;Laerm;45901;47.600;9.890;2024-01-16T05:22:47;39.91;37.32;46.33;;
60031;Laerm;45901;47.600;9.890;2024-01-16T05:25:15;39.86;37.52;44.03;;
60031;Laerm;45901;47.600;9.890;2024-01-16T05:27:43;39.73;35.94;41.96;;
60031;Laerm;45901;47.600;9.890;2024-01-16T05:30:11;39.77;37.12;42.53;;
60031;Laerm;45901;47.600;9.890;2024-01-16T05:32:39;40.51;37.12;46.15;;
60031;Laerm;45901;47.600;9.890;2024-01-16T05:35:07;39.75;37.32;42.09;;
60031;Laerm;45901;47.600;9.890;2024-01-16T05:37:35;40.18;36.91;48.66;;
60031;Laerm;45901;47.600;9.890;2024-01-16T05:40:04;39.71;36.69;42.29;;
60031;Laerm;45901;47.600;9.890;2024-01-16T05:42:33;39.64;36.20;41.82;;
60031;Laerm;45901;47.600;9.890;2024-01-16T05:45:00;39.65;36.69;41.53;;
60031;Laerm;45901;47.600;9.890;2024-01-16T05:47:28;39.98;36.91;46.25;;
60031;Laerm;45901;47.600;9.890;2024-01-16T05:49:57;40.21;37.32;45.11;;
60031;Laerm;45901;47.600;9.890;2024-01-16T05:52:25;39.81;37.32;43.19;;
60031;Laerm;45901;47.600;9.890;2024-01-16T05:54:52;39.79;37.12;42.65;;
60031;Laerm;45901;47.600;9.890;2024-01-16T05:57:23;40.20;36.91;49.88;;
60031;Laerm;45901;47.600;9.890;2024-01-16T05:59:50;40.36;37.12;45.01;;
60031;Laerm;45901;47.600;9.890;2024-01-16T06:02:17;40.65;36.91;48.32;;
60031;Laerm;45901;47.600;9.890;2024-01-16T06:04:45;40.51;36.91;44.62;;
60031;Laerm;45901;47.600;9.890;2024-01-16T06:07:14;39.85;37.12;44.27;;
60031;Laerm;45901;47.600;9.890;2024-01-16T06:09:41;39.63;36.91;42.09;;
60031;Laerm;45901;47.600;9.890;2024-01-16T06:12:09;40.04;36.91;44.69;;
60031;Laerm;45901;47.600;9.890;2024-01-16T06:14:38;39.78;37.32;41.96;;
60031;Laerm;45901;47.600;9.890;2024-01-16T06:17:06;39.75;37.12;45.45;;
60031;Laerm;45901;47.600;9.890;2024-01-16T06:19:34;39.80;37.12;45.30;;
60031;Laerm;45901;47.600;9.890;2024-01-16T06:22:05;40.47;37.12;48.23;;
60031;Laerm;45901;47.600;9.890;2024-01-16T06:24:33;41.46;38.05;49.10;;
60031;Laerm;45901;47.600;9.890;2024-01-16T06:27:04;40.61;37.32;48.57;;
60031;Laerm;45901;47.600;9.890;2024-01-16T06:29:31;40.92;37.12;45.33;;
60031;Laerm;45901;47.600;9.890;2024-01-16T06:31:59;40.15;36.98;46.52;;
60031;Laerm;45901;47.600;9.890;2024-01-16T06:34:27;40.59;37.32;55.37;;
60031;Laerm;45901;47.600;9.890;2024-01-16T06:36:54;40.62;37.70;44.62;;
60031;Laerm;45901;47.600;9.890;2024-01-16T06:39:21;40.28;37.52;44.51;;
60031;Laerm;45901;47.600;9.890;2024-01-16T06:41:50;39.99;37.12;44.39;;
60031;Laerm;45901;47.600;9.890;2024-01-16T06:44:18;39.77;37.52;42.88;;
60031;Laerm;45901;47.600;9.890;2024-01-16T06:46:46;40.33;36.45;45.63;;
60031;Laerm;45901;47.600;9.890;2024-01-16T06:49:13;40.04;37.32;43.94;;
60031;Laerm;45901;47.600;9.890;2024-01-16T06:51:40;40.27;36.91;44.58;;
60031;Laerm;45901;47.600;9.890;2024-01-16T06:54:07;40.15;37.70;45.69;;
60031;Laerm;45901;47.600;9.890;2024-01-16T06:56:34;40.45;36.91;44.12;;
60031;Laerm;45901;47.600;9.890;2024-01-16T06:59:03;40.17;37.32;46.62;;
60031;Laerm;45901;47.600;9.890;2024-01-16T07:01:29;40.90;37.32;47.52;;
60031;Laerm;45901;47.600;9.890;2024-01-16T07:03:57;39.83;37.52;46.48;;
60031;Laerm;45901;47.600;9.890;2024-01-16T07:06:25;39.90;37.32;44.27;;
60031;Laerm;45901;47.600;9.890;2024-01-16T07:08:52;40.14;37.32;56.76;;
60031;Laerm;45901;47.600;9.890;2024-01-16T07:11:18;40.01;37.32;43.77;;
60031;Laerm;45901;47.600;9.890;2024-01-16T07:13:46;40.01;37.32;46.57;;
60031;Laerm;45901;47.600;9.890;2024-01-16T07:16:15;40.83;38.05;44.97;;
60031;Laerm;45901;47.600;9.890;2024-01-16T07:18:43;41.07;38.37;49.19;;
60031;Laerm;45901;47.600;9.890;2024-01-16T07:21:17;41.29;38.81;55.78;;
60031;Laerm;45901;47.600;9.890;2024-01-16T07:23:45;40.24;37.88;43.94;;
60031;Laerm;45901;47.600;9.890;2024-01-16T07:26:12;40.14;37.70;45.39;;
60031;Laerm;45901;47.600;9.890;2024-01-16T07:28:39;40.35;37.70;43.58;;
60031;Laerm;45901;47.600;9.890;2024-01-16T07:31:08;40.12;37.70;45.39;;
60031;Laerm;45901;47.600;9.890;2024-01-16T07:33:37;40.21;37.12;47.14;;
60031;Laerm;45901;47.600;9.890;2024-01-16T07:36:05;40.23;37.52;46.66;;
60031;Laerm;45901;47.600;9.890;2024-01-16T07:38:32;40.16;37.88;45.57;;
60031;Laerm;45901;47.600;9.890;2024-01-16T07:41:02;39.89;36.91;45.72;;
60031;Laerm;45901;47.600;9.890;2024-01-16T07:43:29;41.24;37.32;50.99;;
60031;Laerm;45901;47.600;9.890;2024-01-16T07:45:55;40.24;37.52;45.91;;
60031;Laerm;45901;47.600;9.890;2024-01-16T07:48:22;39.83;37.52;42.71;;
60031;Laerm;45901;47.600;9.890;2024-01-16T07:50:51;40.92;37.32;50.47;;
60031;Laerm;45901;47.600;9.890;2024-01-16T07:53:18;40.01;37.12;42.53;;
60031;Laerm;45901;47.600;9.890;2024-01-16T07:55:46;40.64;37.32;45.04;;
60031;Laerm;45901;47.600;9.890;2024-01-16T07:58:14;40.13;37.32;43.34;;
60031;Laerm;45901;47.600;9.890;2024-01-16T08:00:41;44.40;37.12;59.69;;
60031;Laerm;45901;47.600;9.890;2024-01-16T08:03:08;44.18;38.21;56.08;;
60031;Laerm;45901;47.600;9.890;2024-01-16T08:05:37;40.91;38.37;53.95;;
60031;Laerm;45901;47.600;9.890;2024-01-16T08:08:08;40.63;38.21;48.03;;
60031;Laerm;45901;47.600;9.890;2024-01-16T08:10:36;40.63;38.60;47.00;;
60031;Laerm;45901;47.600;9.890;2024-01-16T08:13:04;40.64;37.87;42.65;;
60031;Laerm;45901;47.600;9.890;2024-01-16T08:15:31;40.51;37.70;42.47;;
60031;Laerm;45901;47.600;9.890;2024-01-16T08:17:58;40.47;37.88;44.19;;
60031;Laerm;45901;47.600;9.890;2024-01-16T08:20:25;40.55;38.05;43.29;;
60031;Laerm;45901;47.600;9.890;2024-01-16T08:22:53;40.47;37.70;45.45;;
60031;Laerm;45901;47.600;9.890;2024-01-16T08:25:21;40.22;37.88;45.36;;
60031;Laerm;45901;47.600;9.890;2024-01-16T08:27:48;40.35;37.52;46.30;;
60031;Laerm;45901;47.600;9.890;2024-01-16T08:30:16;40.21;37.70;43.72;;
60031;Laerm;45901;47.600;9.890;2024-01-16T08:32:43;40.16;37.32;45.57;;
60031;Laerm;45901;47.600;9.890;2024-01-16T08:35:10;41.42;37.88;50.24;;
60031;Laerm;45901;47.600;9.890;2024-01-16T08:37:37;40.84;37.88;49.25;;
60031;Laerm;45901;47.600;9.890;2024-01-16T08:40:06;41.03;38.05;50.16;;
60031;Laerm;45901;47.600;9.890;2024-01-16T08:42:35;40.31;37.52;47.40;;
60031;Laerm;45901;47.600;9.890;2024-01-16T08:45:03;40.69;37.70;54.09;;
60031;Laerm;45901;47.600;9.890;2024-01-16T08:47:34;40.18;37.70;45.77;;
60031;Laerm;45901;47.600;9.890;2024-01-16T08:50:01;40.12;37.53;46.10;;
60031;Laerm;45901;47.600;9.890;2024-01-16T08:52:29;40.29;37.32;44.80;;
60031;Laerm;45901;47.600;9.890;2024-01-16T08:54:56;39.98;37.32;42.41;;
60031;Laerm;45901;47.600;9.890;2024-01-16T08:57:24;40.02;37.70;43.14;;
60031;Laerm;45901;47.600;9.890;2024-01-16T08:59:53;40.08;37.70;43.14;;
60031;Laerm;45901;47.600;9.890;2024-01-16T09:02:20;41.61;37.88;52.78;;
60031;Laerm;45901;47.600;9.890;2024-01-16T09:04:47;40.56;37.70;47.16;;
60031;Laerm;45901;47.600;9.890;2024-01-16T09:07:16;40.63;37.88;44.51;;
60031;Laerm;45901;47.600;9.890;2024-01-16T09:09:44;40.47;37.88;43.58;;
60031;Laerm;45901;47.600;9.890;2024-01-16T09:12:11;40.51;37.88;44.07;;
60031;Laerm;45901;47.600;9.890;2024-01-16T09:14:39;39.90;36.91;45.51;;
60031;Laerm;45901;47.600;9.890;2024-01-16T09:17:09;40.20;37.52;45.54;;
60031;Laerm;45901;47.600;9.890;2024-01-16T09:19:36;40.71;37.52;47.68;;
60031;Laerm;45901;47.600;9.890;2024-01-16T09:22:04;39.54;36.69;43.19;;
60031;Laerm;45901;47.600;9.890;2024-01-16T09:24:31;42.61;37.32;59.43;;
60031;Laerm;45901;47.600;9.890;2024-01-16T09:26:58;42.31;37.32;61.56;;
60031;Laerm;45901;47.600;9.890;2024-01-16T09:29:25;41.70;37.12;57.69;;
60031;Laerm;45901;47.600;9.890;2024-01-16T09:31:53;40.23;36.45;46.28;;
60031;Laerm;45901;47.600;9.890;2024-01-16T09:34:21;39.41;35.94;47.44;;
60031;Laerm;45901;47.600;9.890;2024-01-16T09:36:49;40.26;36.20;49.14;;
60031;Laerm;45901;47.600;9.890;2024-01-16T09:39:16;39.41;36.10;42.16;;
60031;Laerm;45901;47.600;9.890;2024-01-16T09:41:44;39.02;35.66;42.88;;
60031;Laerm;45901;47.600;9.890;2024-01-16T09:44:11;39.03;35.66;43.93;;
60031;Laerm;45901;47.600;9.890;2024-01-16T09:46:40;39.61;36.45;45.67;;
60031;Laerm;45901;47.600;9.890;2024-01-16T09:49:12;39.17;36.20;42.71;;
60031;Laerm;45901;47.600;9.890;2024-01-16T09:51:43;39.70;36.69;46.40;;
60031;Laerm;45901;47.600;9.890;2024-01-16T09:54:10;39.67;35.94;46.95;;
60031;Laerm;45901;47.600;9.890;2024-01-16T09:56:42;39.75;35.94;49.58;;
60031;Laerm;45901;47.600;9.890;2024-01-16T09:59:10;39.16;36.20;42.93;;
60031;Laerm;45901;47.600;9.890;2024-01-16T10:01:39;41.10;36.20;46.97;;
60031;Laerm;45901;47.600;9.890;2024-01-16T10:04:07;41.84;37.70;51.02;;
60031;Laerm;45901;47.600;9.890;2024-01-16T10:06:34;40.43;36.91;52.28;;
60031;Laerm;45901;47.600;9.890;2024-01-16T10:09:03;39.59;36.20;45.39;;
60031;Laerm;45901;47.600;9.890;2024-01-16T10:11:33;40.14;36.69;48.92;;
60031;Laerm;45901;47.600;9.890;2024-01-16T10:14:00;39.52;36.91;45.11;;
60031;Laerm;45901;47.600;9.890;2024-01-16T10:16:55;39.85;36.20;48.28;;
60031;Laerm;45901;47.600;9.890;2024-01-16T10:19:23;39.88;37.12;45.45;;
60031;Laerm;45901;47.600;9.890;2024-01-16T10:21:51;39.98;36.69;45.51;;
60031;Laerm;45901;47.600;9.890;2024-01-16T10:24:20;41.66;36.69;55.99;;
60031;Laerm;45901;47.600;9.890;2024-01-16T10:26:58;42.29;37.88;54.81;;
60031;Laerm;45901;47.600;9.890;2024-01-16T10:29:27;42.20;36.91;61.32;;
60031;Laerm;45901;47.600;9.890;2024-01-16T10:31:54;40.75;36.69;55.25;;
60031;Laerm;45901;47.600;9.890;2024-01-16T10:34:22;39.85;35.66;48.92;;
60031;Laerm;45901;47.600;9.890;2024-01-16T10:36:51;39.41;36.69;43.60;;
60031;Laerm;45901;47.600;9.890;2024-01-16T10:39:20;39.80;36.91;47.95;;
60031;Laerm;45901;47.600;9.890;2024-01-16T10:41:57;39.91;37.12;55.00;;
60031;Laerm;45901;47.600;9.890;2024-01-16T10:44:24;39.73;37.12;44.07;;
60031;Laerm;45901;47.600;9.890;2024-01-16T10:47:09;40.07;36.20;46.55;;
60031;Laerm;45901;47.600;9.890;2024-01-16T10:49:37;39.96;36.69;45.75;;
60031;Laerm;45901;47.600;9.890;2024-01-16T10:52:09;40.68;36.91;50.20;;
60031;Laerm;45901;47.600;9.890;2024-01-16T10:54:41;40.10;36.91;51.53;;
60031;Laerm;45901;47.600;9.890;2024-01-16T10:57:11;39.53;36.69;44.87;;
60031;Laerm;45901;47.600;9.890;2024-01-16T10:59:46;40.05;37.32;53.13;;
60031;Laerm;45901;47.600;9.890;2024-01-16T11:02:15;40.91;37.12;55.27;;
60031;Laerm;45901;47.600;9.890;2024-01-16T11:04:48;41.13;38.02;46.95;;
60031;Laerm;45901;47.600;9.890;2024-01-16T11:07:16;40.65;37.12;62.90;;
60031;Laerm;45901;47.600;9.890;2024-01-16T11:09:45;41.01;36.69;62.05;;
60031;Laerm;45901;47.600;9.890;2024-01-16T11:12:13;39.64;36.34;44.47;;
60031;Laerm;45901;47.600;9.890;2024-01-16T11:14:44;39.61;36.20;43.49;;
60031;Laerm;45901;47.600;9.890;2024-01-16T11:17:12;40.33;36.69;47.00;;
60031;Laerm;45901;47.600;9.890;2024-01-16T11:19:44;39.79;36.20;47.50;;
60031;Laerm;45901;47.600;9.890;2024-01-16T11:22:14;39.99;37.12;44.43;;
60031;Laerm;45901;47.600;9.890;2024-01-16T11:24:44;39.50;36.69;42.82;;
60031;Laerm;45901;47.600;9.890;2024-01-16T11:27:22;39.88;36.45;43.90;;
60031;Laerm;45901;47.600;9.890;2024-01-16T11:29:50;39.24;36.45;42.65;;
60031;Laerm;45901;47.600;9.890;2024-01-16T11:32:33;40.09;37.12;46.71;;
60031;Laerm;45901;47.600;9.890;2024-01-16T11:35:01;39.54;36.45;50.35;;
60031;Laerm;45901;47.600;9.890;2024-01-16T11:37:29;39.58;35.94;45.57;;
60031;Laerm;45901;47.600;9.890;2024-01-16T11:40:23;39.68;36.20;46.82;;
60031;Laerm;45901;47.600;9.890;2024-01-16T11:42:53;39.69;36.69;43.86;;
60031;Laerm;45901;47.600;9.890;2024-01-16T11:45:49;39.73;36.20;52.44;;
60031;Laerm;45901;47.600;9.890;2024-01-16T11:48:17;39.84;36.91;49.39;;
60031;Laerm;45901;47.600;9.890;2024-01-16T11:50:45;39.62;36.91;42.93;;
60031;Laerm;45901;47.600;9.890;2024-01-16T11:53:34;39.97;35.94;52.22;;
60031;Laerm;45901;47.600;9.890;2024-01-16T11:57:05;40.16;36.69;50.16;;
60031;Laerm;45901;47.600;9.890;2024-01-16T11:59:59;39.95;35.94;49.19;;
60031;Laerm;45901;47.600;9.890;2024-01-16T12:02:49;40.01;36.69;46.38;;
60031;Laerm;45901;47.600;9.890;2024-01-16T12:05:18;40.31;36.91;47.43;;
60031;Laerm;45901;47.600;9.890;2024-01-16T12:07:47;40.21;36.77;49.40;;
60031;Laerm;45901;47.600;9.890;2024-01-16T12:10:16;40.00;36.69;44.35;;
60031;Laerm;45901;47.600;9.890;2024-01-16T12:12:47;39.68;36.69;46.40;;
60031;Laerm;45901;47.600;9.890;2024-01-16T12:15:16;39.68;36.91;43.44;;
60031;Laerm;45901;47.600;9.890;2024-01-16T12:17:54;39.46;36.20;56.71;;
60031;Laerm;45901;47.600;9.890;2024-01-16T12:20:23;39.51;36.20;45.91;;
60031;Laerm;45901;47.600;9.890;2024-01-16T12:22:55;39.34;35.94;42.35;;
60031;Laerm;45901;47.600;9.890;2024-01-16T12:25:23;40.72;36.91;52.24;;
60031;Laerm;45901;47.600;9.890;2024-01-16T12:27:59;40.36;37.12;52.47;;
60031;Laerm;45901;47.600;9.890;2024-01-16T12:30:29;40.28;37.12;47.06;;
60031;Laerm;45901;47.600;9.890;2024-01-16T12:33:06;39.57;36.69;45.83;;
60031;Laerm;45901;47.600;9.890;2024-01-16T12:35:35;40.07;36.69;46.22;;
60031;Laerm;45901;47.600;9.890;2024-01-16T12:38:04;39.53;37.12;46.69;;
60031;Laerm;45901;47.600;9.890;2024-01-16T12:40:32;39.85;36.91;50.18;;
60031;Laerm;45901;47.600;9.890;2024-01-16T12:43:02;40.32;36.91;45.72;;
60031;Laerm;45901;47.600;9.890;2024-01-16T12:45:29;40.60;37.32;46.57;;
60031;Laerm;45901;47.600;9.890;2024-01-16T12:47:57;40.68;37.32;47.16;;
60031;Laerm;45901;47.600;9.890;2024-01-16T12:50:26;40.15;37.32;54.76;;
60031;Laerm;45901;47.600;9.890;2024-01-16T12:53:03;40.84;37.52;58.27;;
60031;Laerm;45901;47.600;9.890;2024-01-16T12:55:32;41.52;37.52;54.31;;
60031;Laerm;45901;47.600;9.890;2024-01-16T12:58:15;41.72;37.32;58.35;;
60031;Laerm;45901;47.600;9.890;2024-01-16T13:00:42;41.07;37.70;48.87;;
60031;Laerm;45901;47.600;9.890;2024-01-16T13:03:15;40.75;37.12;47.61;;
60031;Laerm;45901;47.600;9.890;2024-01-16T13:05:44;40.97;37.70;51.33;;
60031;Laerm;45901;47.600;9.890;2024-01-16T13:08:18;40.13;37.32;45.99;;
60031;Laerm;45901;47.600;9.890;2024-01-16T13:10:46;40.39;37.32;43.86;;
60031;Laerm;45901;47.600;9.890;2024-01-16T13:13:18;40.26;37.32;46.75;;
60031;Laerm;45901;47.600;9.890;2024-01-16T13:15:46;40.02;37.52;45.73;;
60031;Laerm;45901;47.600;9.890;2024-01-16T13:18:19;41.59;38.37;47.95;;
60031;Laerm;45901;47.600;9.890;2024-01-16T13:20:49;40.68;37.70;46.52;;
60031;Laerm;45901;47.600;9.890;2024-01-16T13:23:16;40.24;37.12;44.69;;
60031;Laerm;45901;47.600;9.890;2024-01-16T13:25:45;40.07;37.32;49.24;;
60031;Laerm;45901;47.600;9.890;2024-01-16T13:28:13;40.03;37.17;46.05;;
60031;Laerm;45901;47.600;9.890;2024-01-16T13:30:42;40.67;37.32;49.02;;
60031;Laerm;45901;47.600;9.890;2024-01-16T13:33:09;40.03;36.91;45.57;;
60031;Laerm;45901;47.600;9.890;2024-01-16T13:35:40;40.15;37.32;43.09;;
60031;Laerm;45901;47.600;9.890;2024-01-16T13:38:08;39.96;36.91;42.65;;
60031;Laerm;45901;47.600;9.890;2024-01-16T13:40:36;40.26;37.12;44.69;;
60031;Laerm;45901;47.600;9.890;2024-01-16T13:43:04;39.95;36.91;45.23;;
60031;Laerm;45901;47.600;9.890;2024-01-16T13:45:32;40.41;37.12;48.60;;
60031;Laerm;45901;47.600;9.890;2024-01-16T13:48:01;40.82;37.52;46.73;;
60031;Laerm;45901;47.600;9.890;2024-01-16T13:50:28;41.11;37.52;52.04;;
60031;Laerm;45901;47.600;9.890;2024-01-16T13:52:56;40.50;37.52;50.85;;